createdAt,value
2019-03-25T00:00:22.084Z,68.6
2019-03-25T00:01:21.402Z,69
2019-03-25T00:01:52.022Z,69
2019-03-25T00:02:22.655Z,68.9
2019-03-25T00:02:52.793Z,68.9
2019-03-25T00:03:23.323Z,68.8
2019-03-25T00:03:53.542Z,68.8
2019-03-25T00:05:17.427Z,69.4
2019-03-25T00:06:16.633Z,69.4
2019-03-25T00:07:15.538Z,69.6
2019-03-25T00:08:14.945Z,69.5
2019-03-25T00:09:14.086Z,69.5
2019-03-25T00:10:12.790Z,69.7
2019-03-25T00:11:12.013Z,69.7
2019-03-25T00:12:10.730Z,69.8
2019-03-25T00:12:41.368Z,69.8
2019-03-25T00:13:11.896Z,70
2019-03-25T00:13:42.519Z,70
2019-03-25T00:15:08.003Z,70.2
2019-03-25T00:16:07.323Z,70.4
2019-03-25T00:17:06.140Z,70.3
2019-03-25T00:18:05.362Z,70.5
2019-03-25T00:19:04.271Z,70.5
2019-03-25T00:20:03.596Z,70.6
2019-03-25T00:21:02.416Z,70.7
2019-03-25T00:22:01.729Z,70.7
2019-03-25T00:23:00.549Z,70.8
2019-03-25T00:23:30.877Z,70.8
2019-03-25T00:24:58.883Z,70.8
2019-03-25T00:25:57.910Z,70.7
2019-03-25T00:26:56.727Z,70.8
2019-03-25T00:27:55.637Z,70.8
2019-03-25T00:28:55.051Z,70.8
2019-03-25T00:29:53.961Z,70.5
2019-03-25T00:30:52.779Z,70.3
2019-03-25T00:32:50.832Z,70.6
2019-03-25T00:33:21.560Z,70.6
2019-03-25T00:33:51.781Z,70.5
2019-03-25T00:34:22.322Z,70.5
2019-03-25T00:34:52.753Z,70.7
2019-03-25T00:35:48.140Z,70.8
2019-03-25T00:36:47.466Z,70.6
2019-03-25T00:37:46.586Z,70.7
2019-03-25T00:38:45.450Z,70.8
2019-03-25T00:39:44.472Z,70.7
2019-03-25T00:40:43.184Z,71
2019-03-25T00:41:42.398Z,71
2019-03-25T00:42:41.629Z,71.2
2019-03-25T00:43:40.442Z,71.2
2019-03-25T00:44:39.670Z,71
2019-03-25T00:45:38.894Z,71.3
2019-03-25T00:46:37.751Z,70.6
2019-03-25T00:47:36.524Z,71.1
2019-03-25T00:48:35.749Z,71
2019-03-25T00:49:06.378Z,71
2019-03-25T00:49:37.015Z,70.9
2019-03-25T00:51:32.902Z,71.4
2019-03-25T00:53:31.221Z,71.9
2019-03-25T00:54:30.150Z,71.9
2019-03-25T00:55:28.975Z,72.1
2019-03-25T00:56:28.291Z,72
2019-03-25T00:57:27.108Z,72.3
2019-03-25T00:58:26.324Z,72.5
2019-03-25T00:58:56.947Z,72.5
2019-03-25T00:59:27.589Z,73.1
2019-03-25T00:59:58.113Z,73.1
2019-03-25T01:00:28.757Z,73.2
2019-03-25T01:01:23.347Z,73.6
2019-03-25T01:02:22.673Z,73.5
2019-03-25T01:04:20.475Z,74.3
2019-03-25T01:05:19.602Z,74.4
2019-03-25T01:06:18.515Z,74.6
2019-03-25T01:07:17.842Z,74.8
2019-03-25T01:08:16.745Z,74.8
2019-03-25T01:08:47.011Z,74.8
2019-03-25T01:09:17.138Z,74.9
2019-03-25T01:09:47.765Z,74.9
2019-03-25T01:11:13.651Z,75.7
2019-03-25T01:12:12.872Z,75.3
2019-03-25T01:13:12.194Z,75.3
2019-03-25T01:14:11.161Z,75.6
2019-03-25T01:15:09.893Z,76
2019-03-25T01:16:09.162Z,76.2
2019-03-25T01:17:07.877Z,76.5
2019-03-25T01:17:38.409Z,76.5
2019-03-25T01:18:17.571Z,76.7
2019-03-25T01:18:39.689Z,76.7
2019-03-25T01:19:09.917Z,77.2
2019-03-25T01:19:40.106Z,77.2
2019-03-25T01:20:10.791Z,77.3
2019-03-25T01:20:41.172Z,77.3
2019-03-25T01:23:02.530Z,78.8
2019-03-25T01:24:01.258Z,79.8
2019-03-25T01:25:02.892Z,80
2019-03-25T01:25:59.423Z,80.2
2019-03-25T01:26:58.746Z,80.8
2019-03-25T01:27:57.571Z,81
2019-03-25T01:28:27.847Z,81
2019-03-25T01:28:58.474Z,81.2
2019-03-25T01:29:28.909Z,81.2
2019-03-25T01:29:59.345Z,81.7
2019-03-25T01:30:30.032Z,81.7
2019-03-25T01:31:53.506Z,82.7
2019-03-25T01:32:52.838Z,82.7
2019-03-25T01:33:51.558Z,83.1
2019-03-25T01:34:50.877Z,83.2
2019-03-25T01:35:49.684Z,83.2
2019-03-25T01:36:49.096Z,83.7
2019-03-25T01:37:19.371Z,83.7
2019-03-25T01:37:49.599Z,83.6
2019-03-25T01:38:20.169Z,83.6
2019-03-25T01:38:50.712Z,84.2
2019-03-25T01:39:21.147Z,84.2
2019-03-25T01:39:51.876Z,84.7
2019-03-25T01:40:22.099Z,84.7
2019-03-25T01:41:44.154Z,84.8
2019-03-25T01:42:14.696Z,84.8
2019-03-25T01:42:44.831Z,84.8
2019-03-25T01:43:41.918Z,85.1
2019-03-25T01:44:41.133Z,85.1
2019-03-25T01:45:39.952Z,85.2
2019-03-25T01:47:38.053Z,85.2
2019-03-25T01:48:08.585Z,85.2
2019-03-25T01:48:38.925Z,85.4
2019-03-25T01:49:09.368Z,85.4
2019-03-25T01:49:39.940Z,85.4
2019-03-25T01:50:10.489Z,85.4
2019-03-25T01:50:40.766Z,85.4
2019-03-25T01:51:10.992Z,85.4
2019-03-25T01:51:41.525Z,85.4
2019-03-25T01:52:12.156Z,85.4
2019-03-25T01:53:32.606Z,85.3
2019-03-25T01:54:31.326Z,85.3
2019-03-25T01:55:30.688Z,85.3
2019-03-25T01:56:29.496Z,85.2
2019-03-25T01:57:28.405Z,85.1
2019-03-25T01:57:59.087Z,85.1
2019-03-25T01:58:29.721Z,85.3
2019-03-25T01:59:00.358Z,85.3
2019-03-25T01:59:30.489Z,85.3
2019-03-25T02:00:01.128Z,85.3
2019-03-25T02:00:31.399Z,85.3
2019-03-25T02:01:01.629Z,85.3
2019-03-25T02:02:23.565Z,85.3
2019-03-25T02:03:22.958Z,85.2
2019-03-25T02:04:21.681Z,85.1
2019-03-25T02:05:20.599Z,85
2019-03-25T02:06:20.027Z,85.1
2019-03-25T02:07:18.842Z,84.7
2019-03-25T02:08:18.117Z,84.5
2019-03-25T02:08:48.745Z,84.5
2019-03-25T02:09:18.966Z,84.4
2019-03-25T02:09:49.592Z,84.4
2019-03-25T02:10:20.131Z,83.2
2019-03-25T02:10:50.879Z,83.2
2019-03-25T02:12:13.947Z,83.1
2019-03-25T02:13:13.268Z,83.1
2019-03-25T02:15:10.959Z,83
2019-03-25T02:16:10.320Z,82.9
2019-03-25T02:17:09.182Z,83
2019-03-25T02:18:08.409Z,82.8
2019-03-25T02:19:07.037Z,82.6
2019-03-25T02:19:37.772Z,82.6
2019-03-25T02:20:07.992Z,82.6
2019-03-25T02:20:38.639Z,82.6
2019-03-25T02:22:04.148Z,82.6
2019-03-25T02:23:03.872Z,82.7
2019-03-25T02:24:02.280Z,82.6
2019-03-25T02:25:01.308Z,82.2
2019-03-25T02:26:00.219Z,82.3
2019-03-25T02:26:59.439Z,82.3
2019-03-25T02:27:58.351Z,82.2
2019-03-25T02:29:56.450Z,82.1
2019-03-25T02:30:26.990Z,82.1
2019-03-25T02:31:54.512Z,82
2019-03-25T02:32:53.859Z,82.2
2019-03-25T02:33:52.790Z,82.4
2019-03-25T02:34:51.827Z,82.5
2019-03-25T02:35:50.585Z,82.5
2019-03-25T02:36:49.918Z,82.1
2019-03-25T02:37:48.843Z,82.1
2019-03-25T02:38:47.712Z,82
2019-03-25T02:39:46.646Z,82
2019-03-25T02:40:16.901Z,82
2019-03-25T02:40:47.533Z,81.9
2019-03-25T02:41:19.404Z,81.9
2019-03-25T02:41:48.719Z,81.3
2019-03-25T02:42:43.930Z,81.3
2019-03-25T02:43:42.880Z,80.8
2019-03-25T02:44:42.340Z,80.8
2019-03-25T02:45:41.271Z,80.4
2019-03-25T02:46:40.201Z,80.1
2019-03-25T02:47:39.135Z,79.9
2019-03-25T02:48:38.139Z,79.9
2019-03-25T02:49:37.060Z,79.8
2019-03-25T02:50:36.328Z,79.6
2019-03-25T02:51:35.193Z,79.8
2019-03-25T02:52:34.034Z,79.9
2019-03-25T02:53:33.467Z,79.7
2019-03-25T02:54:32.303Z,79.6
2019-03-25T02:55:42.627Z,79.5
2019-03-25T02:56:01.944Z,79.5
2019-03-25T02:56:32.197Z,79.1
2019-03-25T02:57:29.586Z,79
2019-03-25T02:58:28.448Z,78.7
2019-03-25T02:59:27.290Z,78.9
2019-03-25T03:00:26.530Z,79
2019-03-25T03:01:25.357Z,78.8
2019-03-25T03:02:24.695Z,78.7
2019-03-25T03:03:23.440Z,78.4
2019-03-25T03:04:22.733Z,78.2
2019-03-25T03:05:21.777Z,78.1
2019-03-25T03:05:51.946Z,78.1
2019-03-25T03:06:22.613Z,77.7
2019-03-25T03:06:53.276Z,77.7
2019-03-25T03:07:23.936Z,77.4
2019-03-25T03:07:54.601Z,77.4
2019-03-25T03:08:25.143Z,77.5
2019-03-25T03:10:16.929Z,77.1
2019-03-25T03:11:15.898Z,76.5
2019-03-25T03:12:14.866Z,76.8
2019-03-25T03:13:13.798Z,76.4
2019-03-25T03:14:15.735Z,76.5
2019-03-25T03:15:11.698Z,76.8
2019-03-25T03:15:42.363Z,76.8
2019-03-25T03:16:12.640Z,76.5
2019-03-25T03:16:43.301Z,76.5
2019-03-25T03:18:08.921Z,76.1
2019-03-25T03:19:07.949Z,75.9
2019-03-25T03:20:06.936Z,76.2
2019-03-25T03:21:05.960Z,75.9
2019-03-25T03:22:04.884Z,75.8
2019-03-25T03:23:04.225Z,75.4
2019-03-25T03:24:03.003Z,74.8
2019-03-25T03:24:33.091Z,74.8
2019-03-25T03:25:03.875Z,74.6
2019-03-25T03:25:34.451Z,74.6
2019-03-25T03:26:04.676Z,75
2019-03-25T03:26:35.330Z,75
2019-03-25T03:27:06.003Z,74.6
2019-03-25T03:27:36.691Z,74.6
2019-03-25T03:28:58.192Z,74.7
2019-03-25T03:30:56.430Z,75
2019-03-25T03:31:55.250Z,75.3
2019-03-25T03:32:54.424Z,75.7
2019-03-25T03:33:53.503Z,75.5
2019-03-25T03:34:23.832Z,75.5
2019-03-25T03:34:54.311Z,75.9
2019-03-25T03:35:24.590Z,75.9
2019-03-25T03:35:54.770Z,76.1
2019-03-25T03:36:25.015Z,76.1
2019-03-25T03:36:55.679Z,76.1
2019-03-25T03:37:25.923Z,76.1
2019-03-25T03:37:56.220Z,76.1
2019-03-25T03:38:26.485Z,76.1
2019-03-25T03:39:47.566Z,76.2
2019-03-25T03:40:46.491Z,76.2
2019-03-25T03:41:45.738Z,76.2
2019-03-25T03:42:44.580Z,76.3
2019-03-25T03:44:42.809Z,76.7
2019-03-25T03:45:12.967Z,76.7
2019-03-25T03:45:43.732Z,76.7
2019-03-25T03:46:14.384Z,76.7
2019-03-25T03:46:44.999Z,76.6
2019-03-25T03:47:15.265Z,76.6
2019-03-25T03:47:45.935Z,76.6
2019-03-25T03:48:16.201Z,76.6
2019-03-25T03:50:37.080Z,76.9
2019-03-25T03:51:35.951Z,76.6
2019-03-25T03:52:34.953Z,76.8
2019-03-25T03:53:33.905Z,76.7
2019-03-25T03:54:32.857Z,76.7
2019-03-25T03:55:03.128Z,76.7
2019-03-25T03:55:33.314Z,76.8
2019-03-25T03:56:14.465Z,76.8
2019-03-25T03:56:34.715Z,76.9
2019-03-25T03:57:04.985Z,76.9
2019-03-25T03:57:35.241Z,76.5
2019-03-25T03:58:05.817Z,76.5
2019-03-25T04:00:27.301Z,77.2
2019-03-25T04:01:26.181Z,77.2
2019-03-25T04:02:25.452Z,76.9
2019-03-25T04:03:24.422Z,76.7
2019-03-25T04:04:23.376Z,76
2019-03-25T04:04:53.645Z,76
2019-03-25T04:05:23.922Z,75.7
2019-03-25T04:05:54.197Z,75.7
2019-03-25T04:06:24.886Z,75.6
2019-03-25T04:06:55.163Z,75.6
2019-03-25T04:07:25.916Z,75.2
2019-03-25T04:07:56.185Z,75.2
2019-03-25T04:09:18.695Z,75.2
2019-03-25T04:10:17.535Z,75.2
2019-03-25T04:11:16.394Z,75.7
2019-03-25T04:12:15.810Z,76
2019-03-25T04:13:14.656Z,76
2019-03-25T04:14:13.581Z,76.3
2019-03-25T04:15:12.535Z,76.3
2019-03-25T04:15:43.225Z,76.3
2019-03-25T04:16:13.499Z,76.1
2019-03-25T04:16:44.075Z,76.1
2019-03-25T04:17:14.357Z,76.2
2019-03-25T04:17:44.613Z,76.2
2019-03-25T04:19:08.816Z,76.4
2019-03-25T04:20:07.782Z,76.5
2019-03-25T04:21:06.668Z,76.6
2019-03-25T04:22:06.138Z,76.7
2019-03-25T04:23:05.098Z,76.7
2019-03-25T04:24:04.058Z,76.8
2019-03-25T04:25:02.924Z,77.1
2019-03-25T04:26:01.876Z,77.1
2019-03-25T04:26:32.352Z,77.1
2019-03-25T04:27:03.047Z,77.1
2019-03-25T04:27:33.722Z,77.1
2019-03-25T04:28:59.238Z,77
2019-03-25T04:29:58.026Z,76.9
2019-03-25T04:30:57.282Z,77
2019-03-25T04:31:56.243Z,77.2
2019-03-25T04:32:55.092Z,77.3
2019-03-25T04:33:54.535Z,76.6
2019-03-25T04:34:53.477Z,76.6
2019-03-25T04:35:52.302Z,77
2019-03-25T04:36:51.447Z,77
2019-03-25T04:37:22.117Z,77
2019-03-25T04:37:52.385Z,76.9
2019-03-25T04:38:23.061Z,76.9
2019-03-25T04:38:53.324Z,76.9
2019-03-25T04:39:48.236Z,76.9
2019-03-25T04:40:47.588Z,76.9
2019-03-25T04:42:45.717Z,76.4
2019-03-25T04:43:44.554Z,76.8
2019-03-25T04:44:43.379Z,76.1
2019-03-25T04:45:42.607Z,75.9
2019-03-25T04:46:41.337Z,75.8
2019-03-25T04:47:40.769Z,75.4
2019-03-25T04:48:39.940Z,75.2
2019-03-25T04:49:38.785Z,75.3
2019-03-25T04:50:38.014Z,75.3
2019-03-25T04:51:36.934Z,75.4
2019-03-25T04:52:35.888Z,75.2
2019-03-25T04:53:06.538Z,75.2
2019-03-25T04:53:36.677Z,75.4
2019-03-25T04:54:34.008Z,75.5
2019-03-25T04:55:32.733Z,75.2
2019-03-25T04:56:40.301Z,75.6
2019-03-25T04:57:31.124Z,75.4
2019-03-25T04:58:29.969Z,75.3
2019-03-25T04:59:28.795Z,75.6
2019-03-25T05:00:28.026Z,74.9
2019-03-25T05:01:27.321Z,75.2
2019-03-25T05:02:26.152Z,74.9
2019-03-25T05:02:56.392Z,74.9
2019-03-25T05:03:26.629Z,74.9
2019-03-25T05:03:57.272Z,74.9
2019-03-25T05:04:27.516Z,75
2019-03-25T05:05:23.226Z,75.4
2019-03-25T05:06:22.067Z,75.3
2019-03-25T05:07:21.326Z,75.4
2019-03-25T05:08:20.246Z,75.3
2019-03-25T05:09:19.174Z,75.4
2019-03-25T05:10:18.108Z,75.5
2019-03-25T05:11:17.444Z,75.6
2019-03-25T05:11:47.914Z,75.6
2019-03-25T05:12:18.557Z,75.8
2019-03-25T05:12:48.803Z,75.8
2019-03-25T05:13:19.047Z,76
2019-03-25T05:13:49.509Z,76
2019-03-25T05:15:13.507Z,76.3
2019-03-25T05:16:12.738Z,76.2
2019-03-25T05:17:11.567Z,76.2
2019-03-25T05:18:10.308Z,76.3
2019-03-25T05:19:09.637Z,76.2
2019-03-25T05:20:08.458Z,76.2
2019-03-25T05:21:07.685Z,76.4
2019-03-25T05:21:38.132Z,76.4
2019-03-25T05:22:11.262Z,76.3
2019-03-25T05:22:38.990Z,76.3
2019-03-25T05:23:09.528Z,76.4
2019-03-25T05:23:40.271Z,76.4
2019-03-25T05:24:10.828Z,76.2
2019-03-25T05:24:41.470Z,76.2
2019-03-25T05:26:02.852Z,75.9
2019-03-25T05:27:02.025Z,75.9
2019-03-25T05:28:00.849Z,75.6
2019-03-25T05:28:59.682Z,75.6
2019-03-25T05:29:58.876Z,75.6
2019-03-25T05:30:57.702Z,75.6
2019-03-25T05:31:27.843Z,75.6
2019-03-25T05:31:58.380Z,75.5
2019-03-25T05:32:28.824Z,75.5
2019-03-25T05:32:59.463Z,75.4
2019-03-25T05:33:30.004Z,75.4
2019-03-25T05:34:00.547Z,75.4
2019-03-25T05:34:31.143Z,75.4
2019-03-25T05:35:53.119Z,75
2019-03-25T05:36:52.043Z,74.9
2019-03-25T05:37:50.767Z,74.9
2019-03-25T05:38:50.044Z,75.1
2019-03-25T05:39:48.975Z,74.9
2019-03-25T05:40:48.196Z,75
2019-03-25T05:41:18.453Z,75
2019-03-25T05:41:48.995Z,75
2019-03-25T05:42:19.534Z,75
2019-03-25T05:42:50.082Z,74.8
2019-03-25T05:43:21.577Z,74.8
2019-03-25T05:43:51.236Z,74.9
2019-03-25T05:44:21.779Z,74.9
2019-03-25T05:44:52.132Z,74.8
2019-03-25T05:45:22.589Z,74.8
2019-03-25T05:46:42.458Z,74.5
2019-03-25T05:47:41.284Z,74.2
2019-03-25T05:48:40.616Z,74
2019-03-25T05:49:39.658Z,73.9
2019-03-25T05:50:38.487Z,73.9
2019-03-25T05:51:08.756Z,73.9
2019-03-25T05:51:39.312Z,73.8
2019-03-25T05:52:09.985Z,73.8
2019-03-25T05:52:40.218Z,73.3
2019-03-25T05:53:10.457Z,73.3
2019-03-25T05:53:41.108Z,73.3
2019-03-25T05:54:11.334Z,73.3
2019-03-25T05:54:41.571Z,73.3
2019-03-25T05:55:12.207Z,73.3
2019-03-25T05:56:32.578Z,73.4
2019-03-25T05:57:31.814Z,73.1
2019-03-25T05:58:30.533Z,73.2
2019-03-25T05:59:29.928Z,73.3
2019-03-25T06:00:28.751Z,73.1
2019-03-25T06:01:27.941Z,73.1
2019-03-25T06:01:58.495Z,73.1
2019-03-25T06:02:29.131Z,73.2
2019-03-25T06:02:59.674Z,73.2
2019-03-25T06:03:30.221Z,73.3
2019-03-25T06:04:00.872Z,73.3
2019-03-25T06:04:31.520Z,73.4
2019-03-25T06:05:01.952Z,73.4
2019-03-25T06:06:22.941Z,73.5
2019-03-25T06:07:22.261Z,73.8
2019-03-25T06:08:20.893Z,74.2
2019-03-25T06:09:20.132Z,73.1
2019-03-25T06:10:18.958Z,73.7
2019-03-25T06:11:18.386Z,73.8
2019-03-25T06:12:17.319Z,73.8
2019-03-25T06:12:47.665Z,73.8
2019-03-25T06:13:18.421Z,74.2
2019-03-25T06:13:49.066Z,74.2
2019-03-25T06:14:19.509Z,74.2
2019-03-25T06:14:50.078Z,74.2
2019-03-25T06:16:13.059Z,75.1
2019-03-25T06:17:12.482Z,75.2
2019-03-25T06:18:11.211Z,74.9
2019-03-25T06:19:10.567Z,75.2
2019-03-25T06:20:09.485Z,75.5
2019-03-25T06:21:08.439Z,76
2019-03-25T06:22:07.270Z,75.1
2019-03-25T06:23:06.707Z,75.3
2019-03-25T06:23:37.350Z,75.3
2019-03-25T06:24:09.022Z,75.2
2019-03-25T06:24:38.566Z,75.2
2019-03-25T06:27:14.610Z,75
2019-03-25T06:28:01.953Z,74.7
2019-03-25T06:29:00.887Z,74.9
2019-03-25T06:29:59.824Z,75.1
2019-03-25T06:30:58.735Z,74.6
2019-03-25T06:31:57.676Z,74.4
2019-03-25T06:32:56.819Z,74.6
2019-03-25T06:33:27.526Z,74.6
2019-03-25T06:33:57.665Z,74.9
2019-03-25T06:34:28.317Z,74.9
2019-03-25T06:35:54.216Z,74.9
2019-03-25T06:36:52.949Z,74.5
2019-03-25T06:38:51.156Z,74.7
2019-03-25T06:39:50.078Z,74.9
2019-03-25T06:40:49.655Z,75
2019-03-25T06:41:48.098Z,74.9
2019-03-25T06:43:46.339Z,74.9
2019-03-25T06:44:16.605Z,74.9
2019-03-25T06:44:47.159Z,74.9
2019-03-25T06:45:44.480Z,75
2019-03-25T06:46:43.407Z,75.5
2019-03-25T06:47:42.152Z,75.2
2019-03-25T06:48:41.507Z,75.3
2019-03-25T06:49:40.243Z,75
2019-03-25T06:50:39.573Z,75.2
2019-03-25T06:51:38.399Z,75
2019-03-25T06:52:37.543Z,75.5
2019-03-25T06:53:36.375Z,75.2
2019-03-25T06:54:35.713Z,75.1
2019-03-25T06:55:34.639Z,74.8
2019-03-25T06:56:34.070Z,75.2
2019-03-25T06:57:32.994Z,74.8
2019-03-25T06:58:31.914Z,74.8
2019-03-25T06:59:31.055Z,74.9
2019-03-25T07:00:01.707Z,74.9
2019-03-25T07:00:31.967Z,74.8
2019-03-25T07:01:29.186Z,75.2
2019-03-25T07:02:28.127Z,75
2019-03-25T07:03:26.952Z,75.4
2019-03-25T07:04:26.338Z,75.1
2019-03-25T07:05:25.261Z,75.2
2019-03-25T07:06:24.180Z,75.6
2019-03-25T07:07:23.564Z,75.2
2019-03-25T07:08:22.293Z,75.3
2019-03-25T07:08:52.537Z,75.3
2019-03-25T07:09:23.089Z,75.1
2019-03-25T07:09:53.319Z,75.1
2019-03-25T07:11:19.230Z,75.3
2019-03-25T07:12:18.461Z,75
2019-03-25T07:13:17.597Z,74.4
2019-03-25T07:14:16.325Z,74.6
2019-03-25T07:15:15.564Z,74.7
2019-03-25T07:16:14.499Z,74.8
2019-03-25T07:17:13.861Z,74.9
2019-03-25T07:18:12.691Z,75.2
2019-03-25T07:18:43.137Z,75.2
2019-03-25T07:19:13.792Z,75.7
2019-03-25T07:19:44.358Z,75.7
2019-03-25T07:20:14.602Z,76.6
2019-03-25T07:20:45.141Z,76.6
2019-03-25T07:22:09.045Z,78
2019-03-25T07:23:07.867Z,78.1
2019-03-25T07:24:06.747Z,78.9
2019-03-25T07:25:06.033Z,78.7
2019-03-25T07:26:05.177Z,79.1
2019-03-25T07:27:03.906Z,79
2019-03-25T07:28:03.349Z,79.1
2019-03-25T07:28:34.021Z,79.1
2019-03-25T07:29:04.229Z,79
2019-03-25T07:29:34.776Z,79
2019-03-25T07:30:05.331Z,79.7
2019-03-25T07:30:35.875Z,79.7
2019-03-25T07:31:06.226Z,78.8
2019-03-25T07:31:36.682Z,78.8
2019-03-25T07:32:58.563Z,78.7
2019-03-25T07:33:57.248Z,78.9
2019-03-25T07:34:56.487Z,79.6
2019-03-25T07:35:55.318Z,79.3
2019-03-25T07:36:54.640Z,79.7
2019-03-25T07:37:53.477Z,79.7
2019-03-25T07:38:23.933Z,79.7
2019-03-25T07:38:54.499Z,79
2019-03-25T07:39:25.146Z,79
2019-03-25T07:39:55.296Z,78.6
2019-03-25T07:40:25.956Z,78.6
2019-03-25T07:40:56.599Z,78.7
2019-03-25T07:41:26.840Z,78.7
2019-03-25T07:42:48.819Z,79.1
2019-03-25T07:43:47.965Z,79.4
2019-03-25T07:44:46.698Z,79.3
2019-03-25T07:45:45.920Z,78.1
2019-03-25T07:46:44.747Z,78
2019-03-25T07:47:43.977Z,77.4
2019-03-25T07:48:14.653Z,77.4
2019-03-25T07:48:45.289Z,77.2
2019-03-25T07:49:15.522Z,77.2
2019-03-25T07:50:40.812Z,77
2019-03-25T07:51:11.556Z,77
2019-03-25T07:51:42.010Z,76.4
2019-03-25T07:52:12.650Z,76.4
2019-03-25T07:53:38.150Z,76.7
2019-03-25T07:54:37.114Z,77.1
2019-03-25T07:55:36.569Z,76.7
2019-03-25T07:56:35.263Z,76.9
2019-03-25T07:57:34.593Z,76.9
2019-03-25T07:58:33.477Z,76.6
2019-03-25T07:59:03.771Z,76.6
2019-03-25T07:59:34.169Z,76.5
2019-03-25T08:00:14.239Z,76.5
2019-03-25T08:00:35.007Z,76.5
2019-03-25T08:01:05.623Z,76.5
2019-03-25T08:01:35.855Z,76.4
2019-03-25T08:02:06.156Z,76.4
2019-03-25T08:04:27.377Z,75.9
2019-03-25T08:05:26.861Z,76
2019-03-25T08:06:25.821Z,76.2
2019-03-25T08:07:24.817Z,75.6
2019-03-25T08:08:23.758Z,76.1
2019-03-25T08:09:04.288Z,76.1
2019-03-25T08:09:24.454Z,76.1
2019-03-25T08:09:54.803Z,76.1
2019-03-25T08:10:25.464Z,76.2
2019-03-25T08:10:56.169Z,76.2
2019-03-25T08:13:19.465Z,76.1
2019-03-25T08:15:17.086Z,75.9
2019-03-25T08:16:16.509Z,75.6
2019-03-25T08:17:15.095Z,75.6
2019-03-25T08:18:14.323Z,75.5
2019-03-25T08:19:13.206Z,75.5
2019-03-25T08:19:43.766Z,75.5
2019-03-25T08:20:13.993Z,75.4
2019-03-25T08:20:44.238Z,75.4
2019-03-25T08:21:14.890Z,75.1
2019-03-25T08:21:45.134Z,75.1
2019-03-25T08:23:09.723Z,75.8
2019-03-25T08:24:08.555Z,75.8
2019-03-25T08:25:07.391Z,75.9
2019-03-25T08:26:06.815Z,75.3
2019-03-25T08:27:05.747Z,75.4
2019-03-25T08:28:04.663Z,75
2019-03-25T08:29:04.005Z,75.2
2019-03-25T08:30:02.935Z,74.6
2019-03-25T08:30:33.138Z,74.6
2019-03-25T08:31:03.788Z,74.7
2019-03-25T08:31:34.346Z,74.7
2019-03-25T08:32:59.939Z,74.8
2019-03-25T08:33:59.277Z,74.5
2019-03-25T08:34:58.195Z,74.9
2019-03-25T08:35:57.123Z,74.6
2019-03-25T08:36:56.341Z,73.7
2019-03-25T08:40:52.413Z,74.5
2019-03-25T08:41:22.659Z,74.5
2019-03-25T08:42:50.680Z,75.1
2019-03-25T08:43:50.804Z,73.6
2019-03-25T08:44:48.718Z,74.1
2019-03-25T08:45:48.047Z,74
2019-03-25T08:46:46.874Z,73.2
2019-03-25T08:47:46.106Z,72.8
2019-03-25T08:48:44.830Z,72.9
2019-03-25T08:49:44.171Z,71
2019-03-25T08:50:42.918Z,71
2019-03-25T08:51:42.252Z,69.5
2019-03-25T08:52:12.984Z,69.5
2019-03-25T08:52:43.218Z,69.5
2019-03-25T08:53:40.443Z,69.4
2019-03-25T08:54:39.266Z,69.8
2019-03-25T08:55:38.494Z,69.1
2019-03-25T08:56:37.641Z,68.8
2019-03-25T08:57:07.881Z,68.8
2019-03-25T08:57:38.541Z,68.1
2019-03-25T08:58:35.783Z,69.1
2019-03-25T08:59:34.705Z,67.8
2019-03-25T09:00:33.527Z,66.9
2019-03-25T09:01:32.776Z,67.2
2019-03-25T09:02:31.708Z,67.2
2019-03-25T09:03:31.057Z,66.6
2019-03-25T09:04:29.943Z,66.8
2019-03-25T09:05:29.027Z,65.9
2019-03-25T09:06:27.970Z,65.9
2019-03-25T09:06:58.625Z,65.9
2019-03-25T09:08:26.032Z,65.7
2019-03-25T09:09:25.435Z,66.2
2019-03-25T09:10:24.158Z,65.9
2019-03-25T09:11:23.495Z,66.6
2019-03-25T09:12:22.443Z,66.8
2019-03-25T09:13:21.685Z,66.8
2019-03-25T09:14:20.419Z,66.6
2019-03-25T09:15:19.652Z,66.4
2019-03-25T09:16:18.940Z,66.6
2019-03-25T09:16:49.579Z,66.6
2019-03-25T09:18:16.686Z,66.8
2019-03-25T09:19:16.228Z,66.9
2019-03-25T09:20:14.983Z,66.8
2019-03-25T09:21:13.919Z,66.9
2019-03-25T09:22:13.062Z,66.5
2019-03-25T09:23:12.394Z,66.8
2019-03-25T09:24:11.225Z,66.3
2019-03-25T09:25:10.557Z,65.9
2019-03-25T09:26:09.284Z,65
2019-03-25T09:26:39.765Z,65
2019-03-25T09:27:10.320Z,64.7
2019-03-25T09:27:40.481Z,64.7
2019-03-25T09:28:11.133Z,64.7
2019-03-25T09:28:41.474Z,64.7
2019-03-25T09:30:05.695Z,64.5
2019-03-25T09:33:02.797Z,64.5
2019-03-25T09:34:02.230Z,64.7
2019-03-25T09:35:01.051Z,64.3
2019-03-25T09:36:00.111Z,64.6
2019-03-25T09:36:30.396Z,64.6
2019-03-25T09:37:00.658Z,64.9
2019-03-25T09:37:31.154Z,64.9
2019-03-25T09:38:01.236Z,65
2019-03-25T09:38:31.786Z,65
2019-03-25T09:39:02.024Z,65.1
2019-03-25T09:39:32.256Z,65.1
2019-03-25T09:40:55.746Z,67.6
2019-03-25T09:41:54.662Z,68.1
2019-03-25T09:42:53.492Z,68.6
2019-03-25T09:43:52.815Z,68.9
2019-03-25T09:44:52.064Z,69
2019-03-25T09:45:50.887Z,69.7
2019-03-25T09:46:21.178Z,69.7
2019-03-25T09:46:51.818Z,69.2
2019-03-25T09:47:22.053Z,69.2
2019-03-25T09:47:52.694Z,69.5
2019-03-25T09:48:23.343Z,69.5
2019-03-25T09:48:53.899Z,69.4
2019-03-25T09:49:24.151Z,69.4
2019-03-25T09:49:54.360Z,69.3
2019-03-25T09:50:24.602Z,69.3
2019-03-25T09:51:45.163Z,69.1
2019-03-25T09:52:44.399Z,68.6
2019-03-25T09:53:43.440Z,68.8
2019-03-25T09:54:42.378Z,68.4
2019-03-25T09:55:41.800Z,68.5
2019-03-25T09:56:12.346Z,68.5
2019-03-25T09:56:42.883Z,68.3
2019-03-25T09:57:13.436Z,68.3
2019-03-25T09:57:44.177Z,68.3
2019-03-25T09:58:14.722Z,68.3
2019-03-25T09:58:44.868Z,68
2019-03-25T09:59:15.215Z,68
2019-03-25T09:59:45.987Z,67.9
2019-03-25T10:00:16.535Z,67.9
2019-03-25T10:01:35.889Z,67
2019-03-25T10:02:35.220Z,66.4
2019-03-25T10:03:34.143Z,66.2
2019-03-25T10:04:33.465Z,65.6
2019-03-25T10:05:32.311Z,64.4
2019-03-25T10:06:31.647Z,64.3
2019-03-25T10:07:02.187Z,64.3
2019-03-25T10:07:32.437Z,63.4
2019-03-25T10:08:03.087Z,63.4
2019-03-25T10:08:33.313Z,64.4
2019-03-25T10:09:03.959Z,64.4
2019-03-25T10:09:34.549Z,63.2
2019-03-25T10:10:05.188Z,63.2
2019-03-25T10:11:27.070Z,62.6
2019-03-25T10:12:25.791Z,62.2
2019-03-25T10:13:25.234Z,61.6
2019-03-25T10:14:23.964Z,61.6
2019-03-25T10:15:23.194Z,61.5
2019-03-25T10:18:20.186Z,59.8
2019-03-25T10:18:50.728Z,59.8
2019-03-25T10:19:21.281Z,59.6
2019-03-25T10:19:51.829Z,59.6
2019-03-25T10:21:17.836Z,58.7
2019-03-25T10:22:16.677Z,58.7
2019-03-25T10:23:15.919Z,58.5
2019-03-25T10:24:14.988Z,57.7
2019-03-25T10:25:13.805Z,57.1
2019-03-25T10:26:13.029Z,58
2019-03-25T10:27:12.376Z,59.2
2019-03-25T10:27:43.031Z,59.2
2019-03-25T10:28:13.636Z,59.3
2019-03-25T10:28:49.420Z,59.3
2019-03-25T10:29:14.664Z,59.8
2019-03-25T10:29:45.210Z,59.8
2019-03-25T10:31:08.511Z,59.7
2019-03-25T10:32:07.457Z,59.6
2019-03-25T10:33:06.643Z,59.8
2019-03-25T10:34:05.889Z,60.2
2019-03-25T10:35:04.628Z,60.7
2019-03-25T10:36:03.861Z,61.3
2019-03-25T10:37:03.179Z,61.8
2019-03-25T10:38:02.106Z,61.7
2019-03-25T10:38:32.656Z,61.7
2019-03-25T10:39:03.002Z,61.8
2019-03-25T10:39:33.647Z,61.8
2019-03-25T10:40:59.352Z,62.1
2019-03-25T10:41:58.590Z,62.2
2019-03-25T10:42:57.424Z,61.3
2019-03-25T10:43:56.555Z,62.2
2019-03-25T10:44:55.507Z,61.4
2019-03-25T10:45:54.731Z,61.8
2019-03-25T10:46:53.956Z,61.3
2019-03-25T10:47:52.887Z,61.3
2019-03-25T10:48:52.214Z,60.6
2019-03-25T10:49:22.776Z,60.6
2019-03-25T10:50:50.283Z,60.5
2019-03-25T10:51:49.133Z,60.8
2019-03-25T10:52:48.455Z,60.6
2019-03-25T10:53:47.294Z,60.9
2019-03-25T10:54:46.810Z,60.5
2019-03-25T10:55:45.874Z,60.5
2019-03-25T10:56:49.733Z,60.3
2019-03-25T10:57:43.930Z,59.7
2019-03-25T10:58:42.758Z,59.8
2019-03-25T10:59:42.082Z,59.5
2019-03-25T11:00:40.911Z,59.1
2019-03-25T11:01:40.173Z,58.7
2019-03-25T11:02:39.001Z,59.4
2019-03-25T11:03:38.333Z,59.4
2019-03-25T11:04:37.270Z,59.5
2019-03-25T11:05:07.510Z,59.5
2019-03-25T11:05:37.965Z,59.7
2019-03-25T11:06:35.718Z,59.5
2019-03-25T11:07:35.058Z,60
2019-03-25T11:08:33.734Z,59.7
2019-03-25T11:09:32.666Z,59.2
2019-03-25T11:10:32.102Z,58.2
2019-03-25T11:11:31.024Z,57.8
2019-03-25T11:12:30.246Z,56.8
2019-03-25T11:13:28.973Z,55.9
2019-03-25T11:14:28.200Z,55.9
2019-03-25T11:14:58.840Z,55.9
2019-03-25T11:15:29.477Z,56.1
2019-03-25T11:15:59.710Z,56.1
2019-03-25T11:16:30.146Z,56.4
2019-03-25T11:17:25.463Z,56.4
2019-03-25T11:18:24.691Z,56.5
2019-03-25T11:19:23.912Z,56.7
2019-03-25T11:20:22.734Z,56.8
2019-03-25T11:21:22.216Z,57.1
2019-03-25T11:22:21.038Z,57
2019-03-25T11:23:19.968Z,57.4
2019-03-25T11:24:19.394Z,57.4
2019-03-25T11:24:49.943Z,57.4
2019-03-25T11:25:20.485Z,56.5
2019-03-25T11:25:51.166Z,56.5
2019-03-25T11:27:16.667Z,56
2019-03-25T11:28:15.945Z,56.1
2019-03-25T11:29:14.763Z,55.9
2019-03-25T11:30:13.721Z,55.9